createdAt,value
2019-05-25T00:00:23.873Z,23.63
2019-05-25T00:02:51.244Z,22.73
2019-05-25T00:05:18.743Z,22.53
2019-05-25T00:07:46.453Z,22.70
2019-05-25T00:10:13.876Z,23.77
2019-05-25T00:12:41.296Z,23.07
2019-05-25T00:15:08.772Z,22.23
2019-05-25T00:17:36.127Z,23.70
2019-05-25T00:20:04.322Z,23.87
2019-05-25T00:22:31.763Z,23.93
2019-05-25T00:24:59.223Z,23.50
2019-05-25T00:27:26.746Z,24.17
2019-05-25T00:29:54.145Z,23.93
2019-05-25T00:32:21.490Z,23.40
2019-05-25T00:34:48.952Z,24.37
2019-05-25T00:37:16.431Z,22.90
2019-05-25T00:39:43.842Z,25.43
2019-05-25T00:42:11.153Z,25.33
2019-05-25T00:44:38.512Z,25.43
2019-05-25T00:47:05.833Z,23.70
2019-05-25T00:49:33.193Z,23.87
2019-05-25T00:52:00.535Z,25.93
2019-05-25T00:54:28.460Z,26.07
2019-05-25T00:56:55.899Z,26.33
2019-05-25T00:59:23.313Z,26.17
2019-05-25T01:01:50.670Z,25.83
2019-05-25T01:04:18.005Z,24.90
2019-05-25T01:06:45.381Z,24.53
2019-05-25T01:09:12.741Z,25.30
2019-05-25T01:11:40.153Z,23.60
2019-05-25T01:14:07.608Z,24.37
2019-05-25T01:16:34.957Z,26.30
2019-05-25T01:19:02.295Z,27.40
2019-05-25T01:21:29.719Z,27.80
2019-05-25T01:23:57.065Z,28.00
2019-05-25T01:26:24.384Z,27.10
2019-05-25T01:28:51.720Z,30.33
2019-05-25T01:31:19.150Z,26.70
2019-05-25T01:33:46.596Z,31.17
2019-05-25T01:36:14.056Z,30.23
2019-05-25T01:38:41.497Z,29.47
2019-05-25T01:41:08.861Z,27.40
2019-05-25T01:43:36.284Z,27.40
2019-05-25T01:46:03.612Z,26.53
2019-05-25T01:48:30.983Z,26.27
2019-05-25T01:50:58.346Z,24.53
2019-05-25T01:53:25.695Z,25.87
2019-05-25T01:55:53.034Z,25.23
2019-05-25T01:58:20.490Z,24.27
2019-05-25T02:00:47.904Z,26.10
2019-05-25T02:03:15.346Z,25.53
2019-05-25T02:05:42.653Z,26.90
2019-05-25T02:08:10.021Z,27.73
2019-05-25T02:10:37.452Z,26.97
2019-05-25T02:13:04.847Z,28.53
2019-05-25T02:15:32.218Z,30.10
2019-05-25T02:17:59.548Z,32.00
2019-05-25T02:20:27.043Z,34.40
2019-05-25T02:22:54.394Z,39.03
2019-05-25T02:25:21.824Z,38.60
2019-05-25T02:27:49.244Z,42.20
2019-05-25T02:30:16.605Z,43.87
2019-05-25T02:32:44.061Z,41.33
2019-05-25T02:35:13.052Z,44.57
2019-05-25T02:37:40.556Z,42.87
2019-05-25T02:40:07.966Z,45.00
2019-05-25T02:42:35.438Z,42.43
2019-05-25T02:45:02.857Z,45.20
2019-05-25T02:47:30.307Z,44.50
2019-05-25T02:49:57.633Z,47.10
2019-05-25T02:52:25.060Z,47.10
2019-05-25T02:54:52.517Z,44.30
2019-05-25T02:57:19.868Z,44.53
2019-05-25T02:59:47.354Z,45.30
2019-05-25T03:02:14.680Z,42.90
2019-05-25T03:04:42.128Z,42.90
2019-05-25T03:07:09.456Z,43.03
2019-05-25T03:09:36.805Z,42.40
2019-05-25T03:12:04.152Z,42.87
2019-05-25T03:14:31.493Z,41.73
2019-05-25T03:16:58.848Z,43.07
2019-05-25T03:19:26.332Z,40.60
2019-05-25T03:21:53.734Z,43.53
2019-05-25T03:24:21.057Z,46.20
2019-05-25T03:26:48.383Z,42.90
2019-05-25T03:29:15.747Z,42.50
2019-05-25T03:31:43.150Z,43.10
2019-05-25T03:34:10.851Z,40.13
2019-05-25T03:36:38.263Z,39.60
2019-05-25T03:39:06.647Z,40.63
2019-05-25T03:41:33.965Z,39.80
2019-05-25T03:44:01.319Z,41.27
2019-05-25T03:46:28.758Z,39.00
2019-05-25T03:48:56.249Z,39.87
2019-05-25T03:51:23.629Z,40.47
2019-05-25T03:53:51.855Z,38.07
2019-05-25T03:56:19.328Z,37.37
2019-05-25T03:58:46.765Z,39.77
2019-05-25T04:01:14.073Z,38.07
2019-05-25T04:03:41.429Z,38.83
2019-05-25T04:06:08.751Z,36.70
2019-05-25T04:08:36.117Z,39.40
2019-05-25T04:11:03.639Z,38.77
2019-05-25T04:13:30.991Z,39.50
2019-05-25T04:16:00.090Z,36.90
2019-05-25T04:18:27.524Z,38.30
2019-05-25T04:20:54.968Z,38.07
2019-05-25T04:23:22.403Z,37.83
2019-05-25T04:25:49.977Z,35.33
2019-05-25T04:28:17.315Z,35.70
2019-05-25T04:30:44.735Z,36.17
2019-05-25T04:33:12.087Z,35.60
2019-05-25T04:35:39.511Z,34.43
2019-05-25T04:38:06.932Z,34.10
2019-05-25T04:40:34.281Z,34.83
2019-05-25T04:43:01.651Z,34.00
2019-05-25T04:45:28.997Z,33.73
2019-05-25T04:47:56.349Z,33.20
2019-05-25T04:50:23.724Z,31.47
2019-05-25T04:52:51.098Z,30.70
2019-05-25T04:55:18.521Z,29.50
2019-05-25T04:57:45.873Z,28.13
2019-05-25T05:00:13.216Z,25.90
2019-05-25T05:02:40.629Z,23.00
2019-05-25T05:05:07.948Z,23.87
2019-05-25T05:07:35.399Z,21.17
2019-05-25T05:10:03.498Z,22.00
2019-05-25T05:12:30.957Z,22.03
2019-05-25T05:14:58.362Z,22.00
2019-05-25T05:17:25.848Z,20.67
2019-05-25T05:19:53.247Z,20.13
2019-05-25T05:22:20.726Z,19.73
2019-05-25T05:24:48.116Z,19.77
2019-05-25T05:27:15.503Z,18.73
2019-05-25T05:29:42.894Z,19.93
2019-05-25T05:32:10.266Z,17.00
2019-05-25T05:34:37.654Z,19.33
2019-05-25T05:37:05.082Z,19.17
2019-05-25T05:39:32.475Z,19.00
2019-05-25T05:41:59.829Z,18.30
2019-05-25T05:44:27.266Z,17.83
2019-05-25T05:46:55.741Z,17.57
2019-05-25T05:49:23.112Z,18.07
2019-05-25T05:51:50.699Z,18.77
2019-05-25T05:54:18.626Z,20.13
2019-05-25T05:56:46.072Z,19.27
2019-05-25T05:59:13.547Z,18.80
2019-05-25T06:01:40.864Z,18.37
2019-05-25T06:04:08.283Z,19.30
2019-05-25T06:06:35.702Z,18.27
2019-05-25T06:09:04.248Z,18.77
2019-05-25T06:11:31.722Z,17.73
2019-05-25T06:13:59.182Z,17.37
2019-05-25T06:16:26.572Z,17.67
2019-05-25T06:18:53.932Z,17.77
2019-05-25T06:21:21.281Z,16.73
2019-05-25T06:23:48.632Z,15.10
2019-05-25T06:26:15.994Z,16.50
2019-05-25T06:28:43.463Z,17.50
2019-05-25T06:31:10.998Z,17.53
2019-05-25T06:33:38.396Z,17.50
2019-05-25T06:36:05.912Z,16.63
2019-05-25T06:38:33.278Z,15.50
2019-05-25T06:41:00.643Z,15.73
2019-05-25T06:43:27.991Z,15.73
2019-05-25T06:45:55.338Z,16.10
2019-05-25T06:48:22.738Z,14.47
2019-05-25T06:50:50.154Z,12.70
2019-05-25T06:53:17.584Z,12.63
2019-05-25T06:55:45.019Z,12.90
2019-05-25T06:58:12.376Z,12.47
2019-05-25T07:00:39.775Z,15.50
2019-05-25T07:03:07.271Z,12.23
2019-05-25T07:05:34.555Z,12.23
2019-05-25T07:08:02.067Z,10.40
2019-05-25T07:10:29.478Z,9.90
2019-05-25T07:12:56.810Z,9.43
2019-05-25T07:15:24.146Z,8.33
2019-05-25T07:17:51.566Z,8.00
2019-05-25T07:20:18.944Z,7.57
2019-05-25T07:22:46.678Z,7.67
2019-05-25T07:25:14.132Z,7.10
2019-05-25T07:27:41.623Z,7.60
2019-05-25T07:30:09.124Z,6.13
2019-05-25T07:32:36.530Z,6.07
2019-05-25T07:35:04.800Z,6.17
2019-05-25T07:37:32.137Z,5.10
2019-05-25T07:39:59.519Z,5.20
2019-05-25T07:42:26.930Z,5.33
2019-05-25T07:44:54.274Z,6.03
2019-05-25T07:47:21.758Z,5.50
2019-05-25T07:49:49.127Z,4.93
2019-05-25T07:52:16.652Z,4.63
2019-05-25T07:54:44.019Z,4.87
2019-05-25T07:57:11.565Z,4.23
2019-05-25T07:59:38.922Z,4.37
2019-05-25T08:02:06.267Z,4.60
2019-05-25T08:04:33.686Z,4.07
2019-05-25T08:07:01.190Z,4.50
2019-05-25T08:09:28.536Z,4.37
2019-05-25T08:11:55.997Z,4.83
2019-05-25T08:14:26.422Z,4.37
2019-05-25T08:16:53.717Z,3.27
2019-05-25T08:19:21.038Z,3.47
2019-05-25T08:21:48.504Z,2.53
2019-05-25T08:24:16.022Z,2.90
2019-05-25T08:26:43.442Z,2.17
2019-05-25T08:29:10.771Z,1.70
2019-05-25T08:31:38.083Z,2.23
2019-05-25T08:34:05.522Z,1.50
2019-05-25T08:36:32.845Z,1.62
2019-05-25T08:39:00.233Z,1.82
2019-05-25T08:41:27.553Z,1.87
2019-05-25T08:43:54.907Z,1.87
2019-05-25T08:46:23.086Z,1.60
2019-05-25T08:48:50.461Z,1.80
2019-05-25T08:51:17.865Z,1.80
2019-05-25T08:53:46.779Z,1.40
2019-05-25T08:56:14.230Z,1.40
2019-05-25T08:58:48.289Z,1.50
2019-05-25T09:01:10.657Z,1.63
2019-05-25T09:03:37.971Z,1.83
2019-05-25T09:06:05.343Z,1.33
2019-05-25T09:08:32.787Z,1.30
2019-05-25T09:11:00.118Z,1.40
2019-05-25T09:13:27.451Z,1.57
2019-05-25T09:15:54.762Z,1.45
2019-05-25T09:18:22.170Z,1.10
2019-05-25T09:20:49.597Z,1.30
2019-05-25T09:23:17.023Z,1.25
2019-05-25T09:25:44.413Z,1.40
2019-05-25T09:28:11.899Z,1.70
2019-05-25T09:30:39.295Z,1.35
2019-05-25T09:33:06.714Z,1.53
2019-05-25T09:35:34.033Z,1.67
2019-05-25T09:38:01.392Z,1.32
2019-05-25T09:40:28.704Z,1.90
2019-05-25T09:42:56.074Z,1.87
2019-05-25T09:45:23.458Z,2.17
2019-05-25T09:47:51.039Z,1.60
2019-05-25T09:50:18.477Z,2.30
2019-05-25T09:52:45.807Z,1.75
2019-05-25T09:55:13.151Z,2.50
2019-05-25T09:57:41.716Z,1.77
2019-05-25T10:00:10.182Z,1.80
2019-05-25T10:02:37.614Z,2.20
2019-05-25T10:05:06.037Z,1.92
2019-05-25T10:07:33.343Z,2.10
2019-05-25T10:10:00.734Z,1.87
2019-05-25T10:12:28.085Z,2.20
2019-05-25T10:14:55.422Z,2.05
2019-05-25T10:17:22.863Z,1.70
2019-05-25T10:19:50.216Z,1.80
2019-05-25T10:22:17.679Z,1.98
2019-05-25T10:24:45.186Z,2.33
2019-05-25T10:27:12.556Z,2.15
2019-05-25T10:29:40.012Z,1.98
2019-05-25T10:32:07.392Z,1.77
2019-05-25T10:34:34.819Z,1.42
2019-05-25T10:37:02.107Z,1.85
2019-05-25T10:39:29.631Z,1.60
2019-05-25T10:41:57.020Z,1.40
2019-05-25T10:44:24.363Z,1.40
2019-05-25T10:46:51.847Z,1.40
2019-05-25T10:49:19.250Z,1.70
2019-05-25T10:51:46.576Z,1.70
2019-05-25T10:54:13.942Z,1.80
2019-05-25T10:56:41.237Z,1.70
2019-05-25T10:59:08.557Z,1.47
2019-05-25T11:01:35.891Z,1.67
2019-05-25T11:04:03.351Z,1.72
2019-05-25T11:06:30.757Z,1.30
2019-05-25T11:08:58.147Z,1.80
2019-05-25T11:11:25.639Z,1.87
2019-05-25T11:13:52.977Z,1.98
2019-05-25T11:16:20.306Z,1.98
2019-05-25T11:18:47.652Z,1.50
2019-05-25T11:21:14.982Z,1.40
2019-05-25T11:23:42.312Z,1.45
2019-05-25T11:26:09.712Z,1.30
2019-05-25T11:28:37.124Z,1.32
2019-05-25T11:31:04.438Z,1.30
2019-05-25T11:33:31.801Z,1.67
2019-05-25T11:35:59.106Z,1.55
2019-05-25T11:38:26.646Z,1.20
2019-05-25T11:40:53.976Z,1.20
2019-05-25T11:43:21.292Z,1.60
2019-05-25T11:45:48.663Z,1.50
2019-05-25T11:48:16.189Z,1.35
2019-05-25T11:50:43.551Z,1.85
2019-05-25T11:53:10.912Z,1.17
2019-05-25T11:55:38.226Z,1.72
2019-05-25T11:58:05.648Z,1.70
2019-05-25T12:00:33.018Z,1.67
2019-05-25T12:03:00.326Z,1.50
2019-05-25T12:05:28.045Z,1.40
2019-05-25T12:07:55.427Z,1.55
2019-05-25T12:10:22.742Z,1.50
2019-05-25T12:12:50.104Z,1.75
2019-05-25T12:15:17.553Z,1.75
2019-05-25T12:17:44.884Z,1.52
2019-05-25T12:20:12.441Z,1.92
2019-05-25T12:22:39.784Z,1.87
2019-05-25T12:25:07.281Z,2.02
2019-05-25T12:27:34.804Z,1.67
2019-05-25T12:30:02.178Z,1.75
2019-05-25T12:32:29.691Z,2.30
2019-05-25T12:34:57.019Z,2.50
2019-05-25T12:37:24.458Z,1.87
2019-05-25T12:39:51.851Z,2.75
2019-05-25T12:42:19.208Z,1.90
2019-05-25T12:44:46.601Z,2.00
2019-05-25T12:47:13.986Z,2.72
2019-05-25T12:49:50.650Z,3.00
2019-05-25T12:52:10.516Z,3.40
2019-05-25T12:54:37.893Z,2.37
2019-05-25T12:57:05.275Z,2.35
2019-05-25T12:59:32.689Z,2.55
2019-05-25T13:02:00.045Z,2.50
2019-05-25T13:04:27.458Z,3.55
2019-05-25T13:06:54.844Z,3.02
2019-05-25T13:09:22.343Z,3.12
2019-05-25T13:11:49.657Z,2.90
2019-05-25T13:14:17.077Z,2.98
2019-05-25T13:16:44.399Z,2.95
2019-05-25T13:19:11.821Z,3.08
2019-05-25T13:21:39.175Z,2.90
2019-05-25T13:24:06.535Z,3.40
2019-05-25T13:26:33.861Z,2.37
2019-05-25T13:29:01.268Z,3.30
2019-05-25T13:31:28.611Z,3.42
2019-05-25T13:33:55.928Z,3.72
2019-05-25T13:36:23.253Z,4.15
2019-05-25T13:38:50.628Z,3.77
2019-05-25T13:41:17.965Z,2.87
2019-05-25T13:43:45.281Z,3.67
2019-05-25T13:46:12.641Z,4.25
2019-05-25T13:48:39.979Z,3.58
2019-05-25T13:51:07.311Z,3.95
2019-05-25T13:53:35.079Z,3.80
2019-05-25T13:56:02.399Z,3.58
2019-05-25T13:58:29.765Z,3.45
2019-05-25T14:00:57.208Z,3.58
2019-05-25T14:03:24.524Z,4.28
2019-05-25T14:05:51.861Z,4.35
2019-05-25T14:08:19.353Z,4.35
2019-05-25T14:10:46.774Z,3.47
2019-05-25T14:13:14.084Z,2.95
2019-05-25T14:15:41.434Z,3.40
2019-05-25T14:18:08.867Z,3.95
2019-05-25T14:20:36.352Z,3.35
2019-05-25T14:23:03.782Z,3.02
2019-05-25T14:25:31.279Z,2.83
2019-05-25T14:27:58.706Z,3.25
2019-05-25T14:30:26.047Z,4.25
2019-05-25T14:32:53.403Z,3.55
2019-05-25T14:35:20.814Z,4.20
2019-05-25T14:37:48.152Z,4.22
2019-05-25T14:40:15.539Z,3.27
2019-05-25T14:42:42.864Z,4.15
2019-05-25T14:45:10.250Z,3.85
2019-05-25T14:47:38.063Z,3.27
2019-05-25T14:50:08.333Z,3.12
2019-05-25T14:52:35.662Z,2.60
2019-05-25T14:55:04.477Z,3.40
2019-05-25T14:57:31.805Z,3.12
2019-05-25T14:59:59.225Z,3.10
2019-05-25T15:02:26.555Z,3.02
2019-05-25T15:04:53.887Z,2.95
2019-05-25T15:07:21.303Z,4.00
2019-05-25T15:09:48.922Z,3.40
2019-05-25T15:12:16.286Z,3.75
2019-05-25T15:14:43.635Z,2.83
2019-05-25T15:17:11.048Z,2.95
2019-05-25T15:19:38.461Z,3.58
2019-05-25T15:22:05.963Z,3.00
2019-05-25T15:24:33.364Z,3.70
2019-05-25T15:27:00.736Z,3.50
2019-05-25T15:29:28.055Z,3.15
2019-05-25T15:31:55.486Z,3.58
2019-05-25T15:34:22.862Z,3.55
2019-05-25T15:36:50.256Z,3.33
2019-05-25T15:39:17.597Z,3.15
2019-05-25T15:41:45.056Z,3.10
2019-05-25T15:44:12.349Z,3.08
2019-05-25T15:46:39.830Z,2.72
2019-05-25T15:49:07.205Z,2.70
2019-05-25T15:51:34.627Z,3.58
2019-05-25T15:54:02.041Z,3.22
2019-05-25T15:56:29.391Z,3.37
2019-05-25T15:58:56.886Z,2.90
2019-05-25T16:01:24.241Z,3.17
2019-05-25T16:03:53.881Z,2.75
2019-05-25T16:06:23.821Z,2.50
2019-05-25T16:08:50.327Z,2.45
2019-05-25T16:11:17.702Z,1.98
2019-05-25T16:13:45.160Z,2.22
2019-05-25T16:16:12.580Z,2.65
2019-05-25T16:18:39.990Z,3.55
2019-05-25T16:21:09.547Z,2.40
2019-05-25T16:23:36.906Z,2.80
2019-05-25T16:26:04.250Z,2.67
2019-05-25T16:28:31.598Z,2.60
2019-05-25T16:30:58.921Z,2.70
2019-05-25T16:33:26.328Z,2.15
2019-05-25T16:35:57.769Z,2.95
2019-05-25T16:38:22.805Z,3.58
2019-05-25T16:40:50.096Z,4.85
2019-05-25T16:43:17.440Z,4.37
2019-05-25T16:45:44.836Z,4.22
2019-05-25T16:48:12.178Z,3.85
2019-05-25T16:50:39.537Z,3.85
2019-05-25T16:53:06.897Z,4.80
2019-05-25T16:55:34.254Z,4.60
2019-05-25T16:58:01.711Z,5.87
2019-05-25T17:00:29.275Z,6.60
2019-05-25T17:02:57.380Z,5.75
2019-05-25T17:05:24.774Z,6.37
2019-05-25T17:07:52.177Z,6.17
2019-05-25T17:10:19.612Z,6.08
2019-05-25T17:12:47.037Z,5.75
2019-05-25T17:15:14.406Z,7.28
2019-05-25T17:17:41.738Z,5.15
2019-05-25T17:20:09.544Z,6.62
2019-05-25T17:22:36.916Z,7.78
2019-05-25T17:25:07.186Z,6.28
2019-05-25T17:27:34.551Z,6.05
2019-05-25T17:30:01.887Z,5.83
2019-05-25T17:32:29.206Z,5.92
2019-05-25T17:34:56.573Z,5.62
2019-05-25T17:37:23.947Z,5.92
2019-05-25T17:39:51.404Z,5.75
2019-05-25T17:42:18.708Z,5.30
2019-05-25T17:44:46.064Z,4.83
2019-05-25T17:47:13.424Z,6.30
2019-05-25T17:49:40.756Z,5.28
2019-05-25T17:52:08.128Z,5.47
2019-05-25T17:54:35.489Z,5.78
2019-05-25T17:57:02.988Z,5.30
2019-05-25T17:59:30.318Z,6.22
2019-05-25T18:01:57.690Z,5.78
2019-05-25T18:04:24.996Z,5.83
2019-05-25T18:06:52.343Z,5.40
2019-05-25T18:09:19.713Z,5.90
2019-05-25T18:11:47.106Z,6.05
2019-05-25T18:14:14.413Z,6.45
2019-05-25T18:16:41.752Z,7.08
2019-05-25T18:19:09.082Z,6.42
2019-05-25T18:21:36.453Z,6.00
2019-05-25T18:24:03.818Z,5.90
2019-05-25T18:26:31.114Z,7.72
2019-05-25T18:28:58.435Z,9.20
2019-05-25T18:31:25.894Z,9.30
2019-05-25T18:33:53.801Z,9.78
2019-05-25T18:36:21.305Z,9.65
2019-05-25T18:38:48.620Z,11.53
2019-05-25T18:41:15.964Z,45.48
2019-05-25T18:43:43.387Z,50.75
2019-05-25T18:46:10.725Z,39.40
2019-05-25T18:48:38.067Z,34.45
2019-05-25T18:51:05.399Z,28.80
2019-05-25T18:53:32.720Z,30.45
2019-05-25T18:56:00.063Z,27.58
2019-05-25T18:58:27.452Z,25.20
2019-05-25T19:00:55.273Z,23.27
2019-05-25T19:03:22.626Z,24.32
2019-05-25T19:05:50.003Z,23.22
2019-05-25T19:08:17.355Z,23.07
2019-05-25T19:10:44.671Z,19.48
2019-05-25T19:13:12.048Z,20.88
2019-05-25T19:15:39.378Z,20.52
2019-05-25T19:18:06.752Z,21.62
2019-05-25T19:20:34.105Z,23.80
2019-05-25T19:23:01.417Z,23.38
2019-05-25T19:25:28.771Z,21.90
2019-05-25T19:27:56.874Z,19.97
2019-05-25T19:30:24.183Z,19.80
2019-05-25T19:32:51.549Z,19.67
2019-05-25T19:35:18.921Z,16.90
2019-05-25T19:37:46.261Z,15.20
2019-05-25T19:40:13.619Z,16.23
2019-05-25T19:42:40.957Z,15.63
2019-05-25T19:45:08.381Z,17.87
2019-05-25T19:47:35.713Z,17.63
2019-05-25T19:50:05.323Z,19.43
2019-05-25T19:52:32.961Z,16.17
2019-05-25T19:55:00.348Z,17.33
2019-05-25T19:57:27.766Z,24.00
2019-05-25T19:59:56.823Z,19.55
2019-05-25T20:02:24.192Z,19.52
2019-05-25T20:04:51.527Z,16.10
2019-05-25T20:07:18.884Z,15.43
2019-05-25T20:09:46.337Z,17.47
2019-05-25T20:12:13.677Z,16.40
2019-05-25T20:14:41.026Z,18.00
2019-05-25T20:17:08.373Z,16.90
2019-05-25T20:19:35.696Z,16.85
2019-05-25T20:22:03.034Z,19.47
2019-05-25T20:24:30.431Z,20.43
2019-05-25T20:27:01.384Z,23.30
2019-05-25T20:29:26.754Z,21.83
2019-05-25T20:31:54.157Z,20.90
2019-05-25T20:34:21.479Z,20.40
2019-05-25T20:36:48.802Z,19.30
2019-05-25T20:39:16.139Z,20.07
2019-05-25T20:41:43.439Z,20.37
2019-05-25T20:44:10.797Z,20.30
2019-05-25T20:46:38.118Z,21.10
2019-05-25T20:49:05.462Z,21.43
2019-05-25T20:51:32.866Z,23.27
2019-05-25T20:54:00.228Z,23.03
2019-05-25T20:56:27.564Z,24.67
2019-05-25T20:58:54.945Z,24.80
2019-05-25T21:01:22.301Z,23.63
2019-05-25T21:03:49.615Z,26.40
2019-05-25T21:06:16.970Z,25.30
2019-05-25T21:08:44.289Z,26.43
2019-05-25T21:11:11.652Z,26.10
2019-05-25T21:13:39.055Z,26.57
2019-05-25T21:16:06.384Z,27.30
2019-05-25T21:18:33.739Z,27.40
2019-05-25T21:21:01.102Z,27.67
2019-05-25T21:23:28.536Z,31.07
2019-05-25T21:25:55.881Z,28.47
2019-05-25T21:28:23.216Z,29.40
2019-05-25T21:30:50.642Z,27.93
2019-05-25T21:33:18.042Z,28.17
2019-05-25T21:35:45.335Z,27.30
2019-05-25T21:38:12.652Z,26.73
2019-05-25T21:40:39.977Z,27.37
2019-05-25T21:43:07.652Z,28.07
2019-05-25T21:45:35.008Z,24.97
2019-05-25T21:48:02.412Z,27.40
2019-05-25T21:50:29.756Z,25.40
2019-05-25T21:52:57.150Z,25.07
2019-05-25T21:55:24.480Z,24.97
2019-05-25T21:57:51.814Z,25.73
2019-05-25T22:00:20.824Z,26.37
2019-05-25T22:02:48.132Z,27.67
2019-05-25T22:05:15.526Z,29.53
2019-05-25T22:07:42.972Z,34.17
2019-05-25T22:10:10.717Z,31.20
2019-05-25T22:12:40.216Z,30.47
2019-05-25T22:15:08.935Z,28.00
2019-05-25T22:17:36.226Z,26.23
2019-05-25T22:20:04.955Z,28.00
2019-05-25T22:22:32.337Z,28.50
2019-05-25T22:24:59.688Z,27.33
2019-05-25T22:27:27.092Z,28.90
2019-05-25T22:29:56.124Z,26.50
2019-05-25T22:32:23.448Z,27.73
2019-05-25T22:34:50.776Z,28.97
2019-05-25T22:37:18.204Z,26.30
2019-05-25T22:39:45.589Z,26.47
2019-05-25T22:42:13.004Z,29.90
2019-05-25T22:44:40.340Z,28.63
2019-05-25T22:47:07.657Z,28.53
2019-05-25T22:49:35.006Z,28.50
2019-05-25T22:52:02.364Z,27.63
2019-05-25T22:54:29.688Z,27.63
2019-05-25T22:56:57.047Z,29.33
2019-05-25T22:59:24.388Z,29.40
2019-05-25T23:01:51.765Z,29.63
2019-05-25T23:04:19.242Z,29.43
2019-05-25T23:06:57.124Z,34.50
2019-05-25T23:09:15.555Z,31.30
2019-05-25T23:11:42.966Z,31.70
2019-05-25T23:14:10.336Z,29.93
2019-05-25T23:16:37.838Z,29.63
2019-05-25T23:19:05.256Z,29.13
2019-05-25T23:21:32.569Z,30.33
2019-05-25T23:23:59.910Z,32.23
2019-05-25T23:26:27.224Z,33.03
2019-05-25T23:28:54.584Z,31.13
2019-05-25T23:31:21.937Z,31.70
2019-05-25T23:33:49.284Z,31.03
2019-05-25T23:36:16.664Z,32.87
2019-05-25T23:38:44.086Z,33.03
2019-05-25T23:41:11.505Z,31.37
2019-05-25T23:43:38.899Z,33.23
2019-05-25T23:46:06.263Z,32.70
2019-05-25T23:48:33.625Z,34.40
2019-05-25T23:51:00.996Z,33.77
2019-05-25T23:53:28.440Z,32.67
2019-05-25T23:55:55.839Z,34.07
2019-05-25T23:58:23.237Z,34.43
